Lairg, United Kingdom
Current Conditions -  °F | °C
As of 2:20 PM on Saturday 25 Oct 2014 (Local Time) from EGPE Reporting Station
Few Clouds Few Clouds  
Wind Chill: 54°   Ceiling: Unl
Heat Index: 54°   Visibility: 6mi
Dew Point: 46°   Wind: 31mph
Humidity: 77%   Direction: 220°SW
Pressure: 29.44"   Gusts: NA
Location:  58.08°N, 4.42°W
Report Text: EGPE 251320Z 22027KT 9999 FEW035 12/08 Q0997
Loading
Personal Weather Stations






























Interactive Weather Map
Tropical Storm Tracking
New forecast layout! Learn more

10-Day Weather Forecast

Advertisements
Track Severe Weather on mobile